Time,TemperatureF,DewpointF,PressureIn,WindDirection,WindDirectionDegrees,WindSpeedMPH,WindSpeedGustMPH,Humidity,HourlyPrecipIn,Conditions,Clouds,dailyrainin,SoftwareType,DateUTC
2013-02-14 00:03:00,49.3,46.2,30.24,North,-999,0.0,0.0,89,0.00,,,-99.99,FreeWX-Wi 1.01,2013-02-14 08:03:00,
2013-02-14 00:13:00,49.3,46.2,30.24,North,-999,0.0,0.0,89,0.00,,,-99.99,FreeWX-Wi 1.01,2013-02-14 08:13:00,
2013-02-14 00:23:00,49.1,46.2,30.24,North,-999,0.0,0.0,90,0.00,,,-99.99,FreeWX-Wi 1.01,2013-02-14 08:23:00,
2013-02-14 00:33:00,49.1,46.2,30.24,North,-999,0.0,0.0,90,0.00,,,-99.99,FreeWX-Wi 1.01,2013-02-14 08:33:00,
2013-02-14 00:43:00,48.9,46.0,30.24,North,-999,0.0,0.0,90,0.00,,,-99.99,FreeWX-Wi 1.01,2013-02-14 08:43:00,
2013-02-14 00:53:00,48.7,45.9,30.24,North,-999,0.0,0.0,90,0.00,,,-99.99,FreeWX-Wi 1.01,2013-02-14 08:53:00,
2013-02-14 01:03:00,48.7,45.9,30.24,North,-999,0.0,0.0,90,0.00,,,-99.99,FreeWX-Wi 1.01,2013-02-14 09:03:00,
2013-02-14 01:13:00,48.7,45.9,30.24,North,-999,0.0,0.0,90,0.00,,,-99.99,FreeWX-Wi 1.01,2013-02-14 09:13:00,
2013-02-14 01:23:00,48.7,45.9,30.24,North,-999,0.0,0.0,90,0.00,,,-99.99,FreeWX-Wi 1.01,2013-02-14 09:23:00,
2013-02-14 01:33:00,48.6,45.7,30.24,North,-999,0.0,0.0,90,0.00,,,-99.99,FreeWX-Wi 1.01,2013-02-14 09:33:00,
2013-02-14 01:43:00,48.6,45.7,30.24,North,-999,0.0,0.0,90,0.00,,,-99.99,FreeWX-Wi 1.01,2013-02-14 09:43:00,
2013-02-14 01:53:00,48.4,45.5,30.24,North,-999,0.0,0.0,90,0.00,,,-99.99,FreeWX-Wi 1.01,2013-02-14 09:53:00,
2013-02-14 02:03:00,48.4,45.5,30.24,North,-999,0.0,0.0,90,0.00,,,-99.99,FreeWX-Wi 1.01,2013-02-14 10:03:00,
2013-02-14 02:13:00,48.2,45.3,30.24,North,-999,0.0,0.0,90,0.00,,,-99.99,FreeWX-Wi 1.01,2013-02-14 10:13:00,
2013-02-14 02:23:00,48.0,45.5,30.24,North,-999,0.0,0.0,91,0.00,,,-99.99,FreeWX-Wi 1.01,2013-02-14 10:23:00,
2013-02-14 02:33:00,47.8,45.3,30.24,North,-999,0.0,0.0,91,0.00,,,-99.99,FreeWX-Wi 1.01,2013-02-14 10:33:00,
2013-02-14 02:43:00,47.8,45.3,30.24,North,-999,0.0,0.0,91,0.00,,,-99.99,FreeWX-Wi 1.01,2013-02-14 10:43:00,
2013-02-14 02:53:00,47.7,45.1,30.24,North,-999,0.0,0.0,91,0.00,,,-99.99,FreeWX-Wi 1.01,2013-02-14 10:53:00,
2013-02-14 03:03:00,47.7,45.1,30.24,North,-999,0.0,0.0,91,0.00,,,-99.99,FreeWX-Wi 1.01,2013-02-14 11:03:00,
2013-02-14 03:13:00,47.7,45.1,30.24,North,-999,0.0,0.0,91,0.00,,,-99.99,FreeWX-Wi 1.01,2013-02-14 11:13:00,
2013-02-14 03:23:00,47.8,45.3,30.24,North,-999,0.0,0.0,91,0.00,,,-99.99,FreeWX-Wi 1.01,2013-02-14 11:23:00,
2013-02-14 03:33:00,48.2,45.7,30.24,North,-999,0.0,3.1,91,0.00,,,-99.99,FreeWX-Wi 1.01,2013-02-14 11:33:00,
2013-02-14 03:43:00,48.4,45.9,30.21,North,-999,0.0,4.0,91,0.00,,,-99.99,FreeWX-Wi 1.01,2013-02-14 11:43:00,
2013-02-14 03:53:00,48.6,46.0,30.21,North,-999,0.0,3.1,91,0.00,,,-99.99,FreeWX-Wi 1.01,2013-02-14 11:53:00,
2013-02-14 04:03:00,48.7,46.2,30.21,North,-999,0.0,0.0,91,0.00,,,-99.99,FreeWX-Wi 1.01,2013-02-14 12:03:00,
2013-02-14 04:13:00,48.7,46.2,30.21,North,-999,0.0,4.0,91,0.00,,,-99.99,FreeWX-Wi 1.01,2013-02-14 12:13:00,
2013-02-14 04:23:00,48.7,46.2,30.21,North,-999,0.0,0.0,91,0.00,,,-99.99,FreeWX-Wi 1.01,2013-02-14 12:23:00,
2013-02-14 04:33:00,48.9,46.4,30.21,North,-999,0.0,2.7,91,0.00,,,-99.99,FreeWX-Wi 1.01,2013-02-14 12:33:00,
2013-02-14 04:43:00,48.9,46.8,30.24,North,-999,0.0,3.1,92,0.00,,,-99.99,FreeWX-Wi 1.01,2013-02-14 12:43:00,
2013-02-14 04:53:00,49.1,46.9,30.24,North,-999,0.0,2.7,92,0.00,,,-99.99,FreeWX-Wi 1.01,2013-02-14 12:53:00,
2013-02-14 05:03:00,49.1,46.9,30.24,North,-999,0.0,4.0,92,0.00,,,-99.99,FreeWX-Wi 1.01,2013-02-14 13:03:00,
2013-02-14 05:13:00,49.1,46.9,30.24,North,-999,0.0,0.0,92,0.00,,,-99.99,FreeWX-Wi 1.01,2013-02-14 13:13:00,
2013-02-14 05:23:00,49.1,46.9,30.24,North,-999,0.0,2.2,92,0.00,,,-99.99,FreeWX-Wi 1.01,2013-02-14 13:23:00,
2013-02-14 05:33:00,49.1,46.9,30.24,North,-999,0.0,0.0,92,0.00,,,-99.99,FreeWX-Wi 1.01,2013-02-14 13:33:00,
2013-02-14 05:43:00,49.1,46.9,30.24,North,-999,0.0,3.1,92,0.00,,,-99.99,FreeWX-Wi 1.01,2013-02-14 13:43:00,
2013-02-14 05:53:00,49.1,46.9,30.24,North,-999,0.0,0.0,92,0.00,,,-99.99,FreeWX-Wi 1.01,2013-02-14 13:53:00,
2013-02-14 06:03:00,49.3,47.1,30.24,North,-999,0.0,3.1,92,0.00,,,-99.99,FreeWX-Wi 1.01,2013-02-14 14:03:00,
2013-02-14 06:13:00,49.3,47.1,30.24,North,-999,0.0,3.1,92,0.00,,,-99.99,FreeWX-Wi 1.01,2013-02-14 14:13:00,
2013-02-14 06:23:00,49.3,47.3,30.24,North,-999,0.0,4.0,93,0.00,,,-99.99,FreeWX-Wi 1.01,2013-02-14 14:23:00,
2013-02-14 06:33:00,49.1,47.1,30.24,North,-999,0.0,3.6,93,0.00,,,-99.99,FreeWX-Wi 1.01,2013-02-14 14:33:00,
2013-02-14 06:43:00,49.1,47.1,30.24,North,-999,0.0,0.0,93,0.00,,,-99.99,FreeWX-Wi 1.01,2013-02-14 14:43:00,
2013-02-14 06:53:00,48.7,46.8,30.24,North,-999,0.0,0.0,93,0.00,,,-99.99,FreeWX-Wi 1.01,2013-02-14 14:53:00,
2013-02-14 07:03:00,48.7,46.8,30.24,North,-999,0.0,3.1,93,0.00,,,-99.99,FreeWX-Wi 1.01,2013-02-14 15:03:00,
2013-02-14 07:13:00,48.7,46.8,30.24,North,-999,0.0,4.0,93,0.00,,,-99.99,FreeWX-Wi 1.01,2013-02-14 15:13:00,
2013-02-14 07:23:00,48.6,46.6,30.24,North,-999,0.0,2.7,93,0.00,,,-99.99,FreeWX-Wi 1.01,2013-02-14 15:23:00,
2013-02-14 07:33:00,48.6,46.6,30.24,North,-999,0.0,0.0,93,0.00,,,-99.99,FreeWX-Wi 1.01,2013-02-14 15:33:00,
2013-02-14 07:43:00,48.6,46.6,30.24,North,-999,0.0,0.0,93,0.00,,,-99.99,FreeWX-Wi 1.01,2013-02-14 15:43:00,
2013-02-14 07:53:00,48.6,46.6,30.24,North,-999,0.0,0.0,93,0.00,,,-99.99,FreeWX-Wi 1.01,2013-02-14 15:53:00,
2013-02-14 08:03:00,48.7,46.8,30.24,North,-999,0.0,0.0,93,0.00,,,-99.99,FreeWX-Wi 1.01,2013-02-14 16:03:00,
2013-02-14 08:13:00,48.9,46.9,30.24,North,-999,0.0,0.0,93,0.00,,,-99.99,FreeWX-Wi 1.01,2013-02-14 16:13:00,
2013-02-14 08:23:00,49.1,47.1,30.27,North,-999,0.0,0.0,93,0.00,,,-99.99,FreeWX-Wi 1.01,2013-02-14 16:23:00,
2013-02-14 08:33:00,49.3,47.3,30.27,North,-999,0.0,0.0,93,0.00,,,-99.99,FreeWX-Wi 1.01,2013-02-14 16:33:00,
2013-02-14 08:43:00,49.6,47.7,30.27,North,-999,0.0,0.0,93,0.00,,,-99.99,FreeWX-Wi 1.01,2013-02-14 16:43:00,
2013-02-14 08:53:00,50.2,48.2,30.27,North,-999,0.0,0.0,93,0.00,,,-99.99,FreeWX-Wi 1.01,2013-02-14 16:53:00,
2013-02-14 09:03:00,50.5,48.6,30.27,North,-999,0.0,3.6,93,0.00,,,-99.99,FreeWX-Wi 1.01,2013-02-14 17:03:00,
2013-02-14 09:13:00,51.1,49.1,30.27,North,-999,0.0,3.1,93,0.00,,,-99.99,FreeWX-Wi 1.01,2013-02-14 17:13:00,
2013-02-14 09:23:00,51.6,49.6,30.24,North,-999,0.0,2.7,93,0.00,,,-99.99,FreeWX-Wi 1.01,2013-02-14 17:23:00,
2013-02-14 09:33:00,52.2,50.2,30.24,North,-999,0.0,3.6,93,0.00,,,-99.99,FreeWX-Wi 1.01,2013-02-14 17:33:00,
2013-02-14 09:43:00,52.9,50.9,30.24,North,-999,0.0,2.7,93,0.00,,,-99.99,FreeWX-Wi 1.01,2013-02-14 17:43:00,
2013-02-14 09:53:00,53.4,51.1,30.24,North,-999,0.0,3.1,92,0.00,,,-99.99,FreeWX-Wi 1.01,2013-02-14 17:53:00,
2013-02-14 10:03:00,54.3,52.0,30.24,North,-999,0.0,4.0,92,0.00,,,-99.99,FreeWX-Wi 1.01,2013-02-14 18:03:00,
2013-02-14 10:13:00,54.9,52.3,30.24,North,-999,0.0,4.9,91,0.00,,,-99.99,FreeWX-Wi 1.01,2013-02-14 18:13:00,
2013-02-14 10:23:00,55.4,52.0,30.24,North,-999,0.0,5.4,88,0.00,,,-99.99,FreeWX-Wi 1.01,2013-02-14 18:23:00,
2013-02-14 10:33:00,55.8,51.6,30.24,SSE,152,1.0,4.0,86,0.00,,,-99.99,FreeWX-Wi 1.01,2013-02-14 18:33:00,
2013-02-14 10:43:00,56.3,51.4,30.24,SSE,151,2.0,5.8,84,0.00,,,-99.99,FreeWX-Wi 1.01,2013-02-14 18:43:00,
2013-02-14 10:53:00,56.7,50.5,30.24,SSE,157,2.0,5.4,80,0.00,,,-99.99,FreeWX-Wi 1.01,2013-02-14 18:53:00,
2013-02-14 11:03:00,57.4,49.8,30.24,SSE,157,2.0,5.8,76,0.00,,,-99.99,FreeWX-Wi 1.01,2013-02-14 19:03:00,
2013-02-14 11:13:00,57.7,48.7,30.24,SSE,158,1.0,4.0,72,0.00,,,-99.99,FreeWX-Wi 1.01,2013-02-14 19:13:00,
2013-02-14 11:23:00,58.1,48.4,30.24,SSE,150,1.0,3.6,70,0.00,,,-99.99,FreeWX-Wi 1.01,2013-02-14 19:23:00,
2013-02-14 11:33:00,58.8,47.5,30.24,North,-999,0.0,5.4,66,0.00,,,-99.99,FreeWX-Wi 1.01,2013-02-14 19:33:00,
2013-02-14 11:43:00,59.5,43.3,30.24,SSE,148,1.0,5.8,55,0.00,,,-99.99,FreeWX-Wi 1.01,2013-02-14 19:43:00,
2013-02-14 11:53:00,60.6,43.9,30.21,SSE,148,1.0,4.9,54,0.00,,,-99.99,FreeWX-Wi 1.01,2013-02-14 19:53:00,
2013-02-14 12:03:00,61.7,42.3,30.21,SSE,149,2.0,4.9,49,0.00,,,-99.99,FreeWX-Wi 1.01,2013-02-14 20:03:00,
2013-02-14 12:13:00,63.1,42.6,30.24,SSE,149,1.0,6.3,47,0.00,,,-99.99,FreeWX-Wi 1.01,2013-02-14 20:13:00,
2013-02-14 12:23:00,64.2,40.6,30.21,SSE,152,2.0,5.8,42,0.00,,,-99.99,FreeWX-Wi 1.01,2013-02-14 20:23:00,
2013-02-14 12:33:00,65.7,42.6,30.21,SSE,159,2.0,5.8,43,0.00,,,-99.99,FreeWX-Wi 1.01,2013-02-14 20:33:00,
2013-02-14 12:43:00,66.6,39.6,30.21,South,175,1.0,4.9,37,0.00,,,-99.99,FreeWX-Wi 1.01,2013-02-14 20:43:00,
2013-02-14 12:53:00,66.7,37.4,30.21,South,172,1.0,5.4,34,0.00,,,-99.99,FreeWX-Wi 1.01,2013-02-14 20:53:00,
2013-02-14 13:03:00,66.6,38.1,30.21,SSE,153,1.0,5.8,35,0.00,,,-99.99,FreeWX-Wi 1.01,2013-02-14 21:03:00,
2013-02-14 13:13:00,66.7,37.4,30.21,SSE,147,2.0,5.4,34,0.00,,,-99.99,FreeWX-Wi 1.01,2013-02-14 21:13:00,
2013-02-14 13:23:00,66.6,37.4,30.18,ESE,122,1.0,5.8,34,0.00,,,-99.99,FreeWX-Wi 1.01,2013-02-14 21:23:00,
2013-02-14 13:33:00,66.2,37.0,30.18,ESE,122,2.0,5.8,34,0.00,,,-99.99,FreeWX-Wi 1.01,2013-02-14 21:33:00,
2013-02-14 13:43:00,66.2,36.3,30.18,ESE,122,2.0,5.4,33,0.00,,,-99.99,FreeWX-Wi 1.01,2013-02-14 21:43:00,
2013-02-14 13:53:00,66.0,36.9,30.18,SSE,148,2.0,5.4,34,0.00,,,-99.99,FreeWX-Wi 1.01,2013-02-14 21:53:00,
2013-02-14 14:03:00,66.0,36.9,30.18,SSE,160,1.0,5.8,34,0.00,,,-99.99,FreeWX-Wi 1.01,2013-02-14 22:03:00,
2013-02-14 14:13:00,65.7,36.5,30.18,SSE,155,2.0,5.8,34,0.00,,,-99.99,FreeWX-Wi 1.01,2013-02-14 22:13:00,
2013-02-14 14:23:00,65.8,36.7,30.18,SSE,148,1.0,4.0,34,0.00,,,-99.99,FreeWX-Wi 1.01,2013-02-14 22:23:00,
2013-02-14 14:33:00,65.8,36.7,30.18,SE,143,1.0,4.9,34,0.00,,,-99.99,FreeWX-Wi 1.01,2013-02-14 22:33:00,
2013-02-14 14:43:00,65.5,36.3,30.18,SSE,148,1.0,5.4,34,0.00,,,-99.99,FreeWX-Wi 1.01,2013-02-14 22:43:00,
2013-02-14 14:53:00,65.1,36.9,30.18,SE,132,1.0,4.9,35,0.00,,,-99.99,FreeWX-Wi 1.01,2013-02-14 22:53:00,
2013-02-14 15:03:00,64.8,37.2,30.18,East,84,1.0,5.8,36,0.00,,,-99.99,FreeWX-Wi 1.01,2013-02-14 23:03:00,
2013-02-14 15:13:00,64.6,37.0,30.18,NNE,31,1.0,4.0,36,0.00,,,-99.99,FreeWX-Wi 1.01,2013-02-14 23:13:00,
2013-02-14 15:23:00,64.4,37.6,30.18,North,5,1.0,5.8,37,0.00,,,-99.99,FreeWX-Wi 1.01,2013-02-14 23:23:00,
2013-02-14 15:33:00,64.4,37.6,30.18,North,358,1.0,5.4,37,0.00,,,-99.99,FreeWX-Wi 1.01,2013-02-14 23:33:00,
2013-02-14 15:43:00,64.2,37.4,30.18,North,1,1.0,6.3,37,0.00,,,-99.99,FreeWX-Wi 1.01,2013-02-14 23:43:00,
2013-02-14 15:53:00,64.2,36.7,30.18,North,357,2.0,5.4,36,0.00,,,-99.99,FreeWX-Wi 1.01,2013-02-14 23:53:00,
2013-02-14 16:03:00,64.0,36.5,30.18,North,350,2.0,5.4,36,0.00,,,-99.99,FreeWX-Wi 1.01,2013-02-15 00:03:00,
2013-02-14 16:13:00,63.5,36.7,30.18,NNW,339,2.0,6.7,37,0.00,,,-99.99,FreeWX-Wi 1.01,2013-02-15 00:13:00,
2013-02-14 16:23:00,63.0,36.3,30.18,NNW,329,3.0,6.3,37,0.00,,,-99.99,FreeWX-Wi 1.01,2013-02-15 00:23:00,
2013-02-14 16:33:00,62.6,36.0,30.18,NNW,327,3.0,7.2,37,0.00,,,-99.99,FreeWX-Wi 1.01,2013-02-15 00:33:00,
2013-02-14 16:43:00,62.2,36.3,30.18,NW,325,3.0,5.4,38,0.00,,,-99.99,FreeWX-Wi 1.01,2013-02-15 00:43:00,
2013-02-14 16:53:00,61.9,36.0,30.18,NNW,335,2.0,5.8,38,0.00,,,-99.99,FreeWX-Wi 1.01,2013-02-15 00:53:00,
2013-02-14 17:03:00,61.7,36.5,30.18,North,358,2.0,8.1,39,0.00,,,-99.99,FreeWX-Wi 1.01,2013-02-15 01:03:00,
2013-02-14 17:13:00,61.3,36.1,30.15,NNE,18,2.0,5.8,39,0.00,,,-99.99,FreeWX-Wi 1.01,2013-02-15 01:13:00,
2013-02-14 17:23:00,60.8,36.3,30.18,NNE,12,2.0,5.4,40,0.00,,,-99.99,FreeWX-Wi 1.01,2013-02-15 01:23:00,
2013-02-14 17:33:00,60.3,36.5,30.18,NNW,346,2.0,5.8,41,0.00,,,-99.99,FreeWX-Wi 1.01,2013-02-15 01:33:00,
2013-02-14 17:43:00,60.1,36.3,30.18,NNW,340,2.0,5.4,41,0.00,,,-99.99,FreeWX-Wi 1.01,2013-02-15 01:43:00,
2013-02-14 17:53:00,59.7,37.2,30.18,North,359,1.0,4.0,43,0.00,,,-99.99,FreeWX-Wi 1.01,2013-02-15 01:53:00,
2013-02-14 18:03:00,59.4,36.9,30.18,North,4,1.0,4.9,43,0.00,,,-99.99,FreeWX-Wi 1.01,2013-02-15 02:03:00,
2013-02-14 18:13:00,59.4,38.7,30.18,North,359,2.0,5.4,46,0.00,,,-99.99,FreeWX-Wi 1.01,2013-02-15 02:13:00,
2013-02-14 18:23:00,59.0,37.8,30.18,NNW,334,2.0,5.8,45,0.00,,,-99.99,FreeWX-Wi 1.01,2013-02-15 02:23:00,
2013-02-14 18:33:00,58.8,37.6,30.18,NNW,329,2.0,3.6,45,0.00,,,-99.99,FreeWX-Wi 1.01,2013-02-15 02:33:00,
2013-02-14 18:43:00,58.5,37.8,30.18,NW,320,2.0,6.3,46,0.00,,,-99.99,FreeWX-Wi 1.01,2013-02-15 02:43:00,
2013-02-14 18:53:00,58.6,38.5,30.18,NNW,348,1.0,4.0,47,0.00,,,-99.99,FreeWX-Wi 1.01,2013-02-15 02:53:00,
2013-02-14 19:03:00,58.8,39.7,30.18,NE,35,1.0,0.0,49,0.00,,,-99.99,FreeWX-Wi 1.01,2013-02-15 03:03:00,
2013-02-14 19:13:00,58.6,38.5,30.18,North,-999,0.0,0.0,47,0.00,,,-99.99,FreeWX-Wi 1.01,2013-02-15 03:13:00,
2013-02-14 19:23:00,58.5,38.3,30.18,North,-999,0.0,0.0,47,0.00,,,-99.99,FreeWX-Wi 1.01,2013-02-15 03:23:00,
2013-02-14 19:33:00,58.1,37.9,30.18,North,-999,0.0,0.0,47,0.00,,,-99.99,FreeWX-Wi 1.01,2013-02-15 03:33:00,
2013-02-14 19:43:00,57.9,37.8,30.18,North,-999,0.0,0.0,47,0.00,,,-99.99,FreeWX-Wi 1.01,2013-02-15 03:43:00,
2013-02-14 19:53:00,57.7,38.1,30.18,North,-999,0.0,0.0,48,0.00,,,-99.99,FreeWX-Wi 1.01,2013-02-15 03:53:00,
2013-02-14 20:03:00,57.7,38.1,30.18,North,-999,0.0,0.0,48,0.00,,,-99.99,FreeWX-Wi 1.01,2013-02-15 04:03:00,
2013-02-14 20:13:00,57.6,38.5,30.18,North,-999,0.0,0.0,49,0.00,,,-99.99,FreeWX-Wi 1.01,2013-02-15 04:13:00,
2013-02-14 20:23:00,57.2,38.3,30.18,North,-999,0.0,0.0,49,0.00,,,-99.99,FreeWX-Wi 1.01,2013-02-15 04:23:00,
2013-02-14 20:33:00,57.0,38.5,30.18,North,-999,0.0,0.0,50,0.00,,,-99.99,FreeWX-Wi 1.01,2013-02-15 04:33:00,
2013-02-14 20:43:00,56.8,38.8,30.18,North,-999,0.0,0.0,51,0.00,,,-99.99,FreeWX-Wi 1.01,2013-02-15 04:43:00,
2013-02-14 20:53:00,56.7,38.7,30.21,North,-999,0.0,0.0,51,0.00,,,-99.99,FreeWX-Wi 1.01,2013-02-15 04:53:00,
2013-02-14 21:03:00,56.5,39.0,30.21,North,-999,0.0,0.0,52,0.00,,,-99.99,FreeWX-Wi 1.01,2013-02-15 05:03:00,
2013-02-14 21:13:00,56.3,39.4,30.21,North,-999,0.0,0.0,53,0.00,,,-99.99,FreeWX-Wi 1.01,2013-02-15 05:13:00,
2013-02-14 21:23:00,56.3,39.9,30.21,North,-999,0.0,0.0,54,0.00,,,-99.99,FreeWX-Wi 1.01,2013-02-15 05:23:00,
2013-02-14 21:33:00,56.1,39.7,30.21,North,-999,0.0,0.0,54,0.00,,,-99.99,FreeWX-Wi 1.01,2013-02-15 05:33:00,
2013-02-14 21:43:00,55.9,39.9,30.21,North,-999,0.0,0.0,55,0.00,,,-99.99,FreeWX-Wi 1.01,2013-02-15 05:43:00,
2013-02-14 21:53:00,55.9,40.5,30.21,North,-999,0.0,0.0,56,0.00,,,-99.99,FreeWX-Wi 1.01,2013-02-15 05:53:00,
2013-02-14 22:03:00,55.8,40.3,30.21,North,-999,0.0,0.0,56,0.00,,,-99.99,FreeWX-Wi 1.01,2013-02-15 06:03:00,
2013-02-14 22:13:00,55.4,40.5,30.21,North,-999,0.0,0.0,57,0.00,,,-99.99,FreeWX-Wi 1.01,2013-02-15 06:13:00,
2013-02-14 22:23:00,55.2,40.6,30.21,North,-999,0.0,0.0,58,0.00,,,-99.99,FreeWX-Wi 1.01,2013-02-15 06:23:00,
2013-02-14 22:33:00,55.2,40.6,30.21,North,-999,0.0,0.0,58,0.00,,,-99.99,FreeWX-Wi 1.01,2013-02-15 06:33:00,
2013-02-14 22:43:00,55.0,40.5,30.21,North,-999,0.0,0.0,58,0.00,,,-99.99,FreeWX-Wi 1.01,2013-02-15 06:43:00,
2013-02-14 22:53:00,54.9,40.8,30.21,North,-999,0.0,0.0,59,0.00,,,-99.99,FreeWX-Wi 1.01,2013-02-15 06:53:00,
2013-02-14 23:03:00,54.7,40.6,30.21,North,-999,0.0,0.0,59,0.00,,,-99.99,FreeWX-Wi 1.01,2013-02-15 07:03:00,
2013-02-14 23:13:00,54.5,40.5,30.21,North,-999,0.0,0.0,59,0.00,,,-99.99,FreeWX-Wi 1.01,2013-02-15 07:13:00,
2013-02-14 23:23:00,54.3,40.8,30.21,North,-999,0.0,0.0,60,0.00,,,-99.99,FreeWX-Wi 1.01,2013-02-15 07:23:00,
2013-02-14 23:33:00,54.1,40.6,30.21,North,-999,0.0,0.0,60,0.00,,,-99.99,FreeWX-Wi 1.01,2013-02-15 07:33:00,
2013-02-14 23:43:00,54.0,40.5,30.21,North,-999,0.0,0.0,60,0.00,,,-99.99,FreeWX-Wi 1.01,2013-02-15 07:43:00,
2013-02-14 23:53:00,54.0,40.8,30.21,North,-999,0.0,0.0,61,0.00,,,-99.99,FreeWX-Wi 1.01,2013-02-15 07:53:00,